Time;durP1;ratioP1;P1;durP2;ratioP2;P2;SDS_P1;SDS_P2;PMS_P1;PMS_P2;Temp;Humidity;BMP_temperature;BMP_pressure;BME280_temperature;BME280_humidity;BME280_pressure;Samples;Min_cycle;Max_cycle;Signal;HPM_P1;HPM_P2
2022/10/15 00:00:06;;;;;;;864.10;803.20;;;;;;;15.34;68.50;100448.22;698549;28;23665;-63
2022/10/15 00:00:28;;;;;;;852.20;791.72;;;;;;;15.34;68.48;100451.75;697045;28;70080;-63
2022/10/15 00:00:50;;;;;;;856.47;795.85;;;;;;;15.33;68.62;100447.38;697733;28;45266;-63
2022/10/15 00:01:14;;;;;;;862.22;801.47;;;;;;;15.31;68.80;100447.59;697420;28;44361;-63
2022/10/15 00:01:36;;;;;;;855.15;794.53;;;;;;;15.32;68.86;100446.53;696101;28;92249;-63
2022/10/15 00:01:58;;;;;;;840.83;780.72;;;;;;;15.30;68.75;100437.75;697883;28;23560;-63
2022/10/15 00:02:19;;;;;;;846.85;786.42;;;;;;;15.31;68.68;100446.75;695096;28;45284;-63
2022/10/15 00:02:40;;;;;;;843.17;782.95;;;;;;;15.29;68.63;100438.78;695712;28;23764;-63
2022/10/15 00:03:01;;;;;;;853.92;793.42;;;;;;;15.29;68.85;100441.50;697585;28;46265;-62
2022/10/15 00:03:22;;;;;;;846.60;786.30;;;;;;;15.29;68.95;100451.56;698460;28;22431;-63
2022/10/15 00:03:45;;;;;;;837.28;777.28;;;;;;;15.28;69.32;100442.59;698247;28;22449;-63
2022/10/15 00:04:06;;;;;;;839.30;779.20;;;;;;;15.28;68.89;100449.88;696878;28;69427;-63
2022/10/15 00:04:29;;;;;;;845.63;785.33;;;;;;;15.27;69.37;100448.25;698497;28;21702;-63
2022/10/15 00:04:50;;;;;;;858.85;798.25;;;;;;;15.26;69.13;100447.38;697192;28;58042;-62
2022/10/15 00:05:12;;;;;;;873.33;812.28;;;;;;;15.26;69.42;100452.00;698627;28;21534;-63
2022/10/15 00:05:35;;;;;;;856.25;795.55;;;;;;;15.25;69.20;100448.47;697443;28;45249;-63
2022/10/15 00:06:03;;;;;;;849.75;789.35;;;;;;;15.25;69.54;100450.31;696115;28;68312;-63
2022/10/15 00:06:24;;;;;;;865.72;804.67;;;;;;;15.25;69.56;100448.47;691667;28;137886;-63
2022/10/15 00:06:46;;;;;;;865.50;804.40;;;;;;;15.26;69.34;100443.84;695760;28;22379;-63
2022/10/15 00:07:07;;;;;;;866.55;805.28;;;;;;;15.25;69.36;100442.16;694467;28;45218;-63
2022/10/15 00:07:28;;;;;;;868.05;806.80;;;;;;;15.26;69.40;100452.00;695382;28;23434;-63
2022/10/15 00:07:50;;;;;;;862.88;801.97;;;;;;;15.27;69.49;100448.25;696837;28;23607;-61
2022/10/15 00:08:12;;;;;;;858.42;797.67;;;;;;;15.25;69.66;100442.16;696286;28;23473;-63
2022/10/15 00:08:34;;;;;;;862.42;801.50;;;;;;;15.24;69.46;100448.66;694572;28;46462;-63
2022/10/15 00:08:55;;;;;;;860.15;799.28;;;;;;;15.26;69.45;100447.38;697723;28;44332;-63
2022/10/15 00:09:17;;;;;;;848.35;787.90;;;;;;;15.26;69.51;100444.66;696052;28;44387;-63
2022/10/15 00:09:39;;;;;;;844.10;783.53;;;;;;;15.25;69.53;100437.56;695502;28;22417;-63
2022/10/15 00:10:00;;;;;;;848.00;787.53;;;;;;;15.25;69.80;100440.28;695083;28;46793;-63
2022/10/15 00:10:22;;;;;;;840.60;780.40;;;;;;;15.26;69.57;100441.94;695559;28;22382;-63
2022/10/15 00:10:43;;;;;;;853.97;793.28;;;;;;;15.26;69.87;100444.66;696726;28;3762;-63
2022/10/15 00:11:05;;;;;;;851.92;791.42;;;;;;;15.26;69.61;100431.06;698559;28;21235;-63
2022/10/15 00:11:28;;;;;;;853.53;792.85;;;;;;;15.27;69.55;100435.47;696805;28;69414;-63
2022/10/15 00:11:49;;;;;;;859.65;798.83;;;;;;;15.28;69.82;100433.56;697464;28;46417;-63
2022/10/15 00:12:10;;;;;;;845.10;784.70;;;;;;;15.29;69.71;100435.25;697642;28;45345;-63
2022/10/15 00:12:32;;;;;;;853.33;792.70;;;;;;;15.29;69.88;100436.06;698368;28;22574;-63
2022/10/15 00:12:53;;;;;;;861.72;800.85;;;;;;;15.30;69.42;100436.94;698511;28;21545;-63
2022/10/15 00:13:15;;;;;;;864.35;803.35;;;;;;;15.32;69.43;100434.81;697748;28;22358;-64
2022/10/15 00:13:37;;;;;;;869.35;808.20;;;;;;;15.32;69.29;100426.66;694596;28;45100;-63
2022/10/15 00:13:59;;;;;;;865.35;804.38;;;;;;;15.34;69.17;100438.16;694640;28;44397;-63
2022/10/15 00:14:20;;;;;;;862.35;801.42;;;;;;;15.35;69.32;100439.00;697516;28;45194;-63
2022/10/15 00:14:42;;;;;;;851.60;791.03;;;;;;;15.34;69.31;100434.59;698453;28;21537;-63
2022/10/15 00:15:05;;;;;;;843.63;783.22;;;;;;;15.34;69.30;100431.88;696858;28;69940;-63
2022/10/15 00:15:26;;;;;;;850.30;789.80;;;;;;;15.35;69.39;100428.94;697567;28;45197;-63
2022/10/15 00:15:47;;;;;;;849.13;788.67;;;;;;;15.32;69.47;100421.22;697569;28;46326;-62
2022/10/15 00:16:11;;;;;;;845.85;785.50;;;;;;;15.33;69.53;100425.63;698374;28;21548;-63
2022/10/15 00:16:33;;;;;;;869.88;808.80;;;;;;;15.34;69.45;100426.44;696074;28;90687;-63
2022/10/15 00:16:55;;;;;;;868.33;807.35;;;;;;;15.35;69.56;100428.94;697184;28;46334;-64
2022/10/15 00:17:16;;;;;;;869.13;807.95;;;;;;;15.36;69.36;100427.06;697061;28;24759;-63
2022/10/15 00:17:37;;;;;;;885.75;824.20;;;;;;;15.36;69.30;100429.78;696089;28;6821;-63
2022/10/15 00:17:59;;;;;;;878.30;816.95;;;;;;;15.36;69.50;100422.47;694103;28;47501;-63
2022/10/15 00:18:26;;;;;;;871.63;810.50;;;;;;;15.37;69.41;100426.00;694260;28;46253;-63
2022/10/15 00:18:47;;;;;;;854.40;793.65;;;;;;;15.37;69.27;100424.13;690680;28;157885;-62
2022/10/15 00:19:09;;;;;;;853.00;792.50;;;;;;;15.38;69.21;100425.78;694914;28;44400;-62
2022/10/15 00:19:31;;;;;;;857.38;796.67;;;;;;;15.38;69.57;100422.25;695634;28;23528;-61
2022/10/15 00:19:52;;;;;;;849.10;788.67;;;;;;;15.38;69.13;100423.06;694715;28;46349;-62
2022/10/15 00:20:13;;;;;;;851.50;791.00;;;;;;;15.39;69.51;100418.44;694875;28;46345;-62
2022/10/15 00:20:34;;;;;;;865.55;804.67;;;;;;;15.39;69.25;100413.88;695784;28;22368;-62
2022/10/15 00:20:58;;;;;;;857.08;796.47;;;;;;;15.39;69.45;100418.44;695717;28;22238;-62
2022/10/15 00:21:21;;;;;;;865.53;804.55;;;;;;;15.40;69.40;100418.25;692829;28;92102;-62
2022/10/15 00:21:42;;;;;;;866.53;805.40;;;;;;;15.41;69.32;100416.38;694732;28;46440;-62
2022/10/15 00:22:03;;;;;;;856.65;796.00;;;;;;;15.41;69.16;100411.75;694719;28;46725;-62
2022/10/15 00:22:24;;;;;;;852.58;792.00;;;;;;;15.41;69.39;100409.03;695579;28;22422;-62
2022/10/15 00:22:45;;;;;;;846.80;786.40;;;;;;;15.44;69.35;100410.50;695566;28;23460;-60
2022/10/15 00:23:07;;;;;;;845.10;784.80;;;;;;;15.45;69.24;100414.88;695899;28;21275;-62
2022/10/15 00:23:30;;;;;;;848.67;788.17;;;;;;;15.45;69.11;100410.28;694067;28;45340;-62
2022/10/15 00:23:51;;;;;;;850.35;789.70;;;;;;;15.47;69.01;100413.59;695353;28;68335;-62
2022/10/15 00:24:12;;;;;;;844.72;784.40;;;;;;;15.46;69.22;100409.22;698426;28;23360;-63
2022/10/15 00:24:34;;;;;;;847.58;787.08;;;;;;;15.45;69.01;100404.84;698290;28;23457;-63
2022/10/15 00:24:55;;;;;;;848.88;788.40;;;;;;;15.46;69.13;100411.09;697436;28;45143;-63
2022/10/15 00:25:17;;;;;;;862.08;801.25;;;;;;;15.45;69.42;100404.84;698442;28;23487;-63
2022/10/15 00:25:41;;;;;;;860.38;799.63;;;;;;;15.44;69.38;100399.59;695818;28;22360;-63
2022/10/15 00:26:05;;;;;;;833.88;773.85;;;;;;;15.45;69.48;100410.28;692500;28;114975;-63
2022/10/15 00:26:27;;;;;;;839.97;779.80;;;;;;;15.44;69.34;100403.16;693172;28;92255;-63
2022/10/15 00:26:48;;;;;;;841.15;781.03;;;;;;;15.45;69.57;100404.84;694642;28;46323;-63
2022/10/15 00:27:09;;;;;;;849.75;789.10;;;;;;;15.44;69.67;100403.16;694898;28;21545;-63
2022/10/15 00:27:32;;;;;;;848.83;788.40;;;;;;;15.45;69.45;100407.56;692866;28;21126;-63
2022/10/15 00:27:53;;;;;;;832.50;772.75;;;;;;;15.46;69.46;100411.09;691062;28;69414;-63
2022/10/15 00:28:14;;;;;;;845.72;785.55;;;;;;;15.45;69.65;100399.41;692737;28;22311;-63
2022/10/15 00:28:35;;;;;;;856.03;795.53;;;;;;;15.45;69.83;100406.69;692548;28;22410;-63
2022/10/15 00:28:59;;;;;;;855.15;794.72;;;;;;;15.45;69.43;100403.97;692505;28;22424;-63
2022/10/15 00:29:21;;;;;;;861.10;800.40;;;;;;;15.44;69.82;100405.88;690243;28;107791;-61
2022/10/15 00:29:42;;;;;;;849.20;788.80;;;;;;;15.43;69.74;100404.19;695415;28;22385;-63
2022/10/15 00:30:04;;;;;;;850.55;790.10;;;;;;;15.43;69.66;100404.19;695140;28;22490;-64
2022/10/15 00:30:26;;;;;;;853.83;793.30;;;;;;;15.45;69.82;100401.25;696626;28;46472;-63
2022/10/15 00:30:47;;;;;;;843.58;783.28;;;;;;;15.44;69.94;100397.72;696662;28;70515;-63
2022/10/15 00:31:10;;;;;;;841.95;781.75;;;;;;;15.45;69.91;100401.25;695457;28;22474;-63
2022/10/15 00:31:33;;;;;;;850.50;790.03;;;;;;;15.44;69.97;100397.72;695667;28;14015;-61
2022/10/15 00:31:55;;;;;;;833.40;773.45;;;;;;;15.45;69.74;100403.97;696044;28;21518;-63
2022/10/15 00:32:16;;;;;;;845.70;785.38;;;;;;;15.46;69.74;100402.94;697552;28;44415;-63
2022/10/15 00:32:38;;;;;;;844.80;784.50;;;;;;;15.45;69.87;100396.66;697343;28;46312;-63
2022/10/15 00:33:01;;;;;;;853.83;793.38;;;;;;;15.46;70.18;100400.22;695273;28;69383;-63
2022/10/15 00:33:23;;;;;;;857.75;797.13;;;;;;;15.46;69.92;100394.78;695648;28;21658;-63
2022/10/15 00:33:45;;;;;;;843.78;783.45;;;;;;;15.47;69.95;100402.72;694303;28;46323;-63
2022/10/15 00:34:06;;;;;;;853.63;793.13;;;;;;;15.47;69.95;100400.00;695734;28;11108;-62
2022/10/15 00:34:27;;;;;;;857.55;796.83;;;;;;;15.47;70.14;100405.44;691707;28;45255;-63
2022/10/15 00:34:50;;;;;;;857.33;796.55;;;;;;;15.48;70.04;100406.28;690922;28;1041;-62
2022/10/15 00:35:11;;;;;;;861.67;800.97;;;;;;;15.48;70.00;100401.66;687324;28;45272;-63
2022/10/15 00:35:32;;;;;;;859.78;799.05;;;;;;;15.48;69.93;100401.66;686411;28;44391;-63
2022/10/15 00:35:59;;;;;;;862.72;801.92;;;;;;;15.48;70.30;100400.81;684812;28;21450;-63
2022/10/15 00:36:23;;;;;;;861.70;800.88;;;;;;;15.46;70.39;100400.22;681451;28;137943;-63
2022/10/15 00:36:45;;;;;;;863.22;802.40;;;;;;;15.47;70.30;100405.44;686735;28;68321;-63
2022/10/15 00:37:07;;;;;;;848.30;787.97;;;;;;;15.45;70.46;100404.84;690137;28;46324;-63
2022/10/15 00:37:28;;;;;;;861.97;801.20;;;;;;;15.46;70.41;100401.03;691764;28;46926;-63
2022/10/15 00:37:50;;;;;;;857.53;796.88;;;;;;;15.47;70.45;100408.16;690184;28;69516;-62
2022/10/15 00:38:12;;;;;;;860.70;800.03;;;;;;;15.47;70.73;100399.19;693619;28;22322;-61
2022/10/15 00:38:34;;;;;;;863.63;802.88;;;;;;;15.46;70.67;100402.94;691448;28;44376;-62
2022/10/15 00:38:56;;;;;;;864.28;803.28;;;;;;;15.45;70.67;100401.25;694617;28;46352;-62
2022/10/15 00:39:17;;;;;;;858.72;798.17;;;;;;;15.44;71.08;100402.34;691827;28;45198;-62
2022/10/15 00:39:38;;;;;;;861.05;800.45;;;;;;;15.43;70.85;100397.94;693455;28;21467;-62
2022/10/15 00:40:01;;;;;;;859.53;799.05;;;;;;;15.43;71.06;100409.63;695522;28;23455;-62
2022/10/15 00:40:22;;;;;;;860.83;800.22;;;;;;;15.44;70.79;100403.16;694614;28;46364;-62
2022/10/15 00:40:43;;;;;;;860.10;799.57;;;;;;;15.44;70.96;100399.59;695527;28;23813;-62
2022/10/15 00:41:06;;;;;;;858.28;797.70;;;;;;;15.43;71.21;100401.47;694641;28;45778;-62
2022/10/15 00:41:30;;;;;;;852.40;791.90;;;;;;;15.43;70.97;100400.66;694834;28;45261;-62
2022/10/15 00:41:51;;;;;;;848.08;787.67;;;;;;;15.43;71.06;100398.75;692443;28;115859;-62
2022/10/15 00:42:13;;;;;;;853.70;793.20;;;;;;;15.44;71.05;100402.34;695361;28;22365;-62
2022/10/15 00:42:34;;;;;;;856.03;795.42;;;;;;;15.43;70.85;100396.03;694742;28;45244;-62
2022/10/15 00:42:56;;;;;;;843.90;783.65;;;;;;;15.44;70.66;100395.00;695479;28;22399;-62
2022/10/15 00:43:34;;;;;;;855.13;794.55;;;;;;;15.44;70.74;100394.16;695590;28;22396;-63
2022/10/15 00:43:57;;;;;;;873.50;812.38;;;;;;;15.46;70.98;100394.78;690690;28;157441;-62
2022/10/15 00:44:46;;;;;;;857.55;796.95;;;;;;;15.44;71.07;100395.00;695315;28;23820;-62
2022/10/15 00:45:12;;;;;;;847.80;787.38;;;;;;;15.45;70.87;100393.94;690588;28;160597;-62
2022/10/15 00:45:33;;;;;;;843.78;783.53;;;;;;;15.46;70.91;100392.88;688772;28;138228;-62
2022/10/15 00:45:54;;;;;;;845.80;785.53;;;;;;;15.48;71.09;100393.50;689847;28;23450;-62
2022/10/15 00:46:19;;;;;;;837.33;777.33;;;;;;;15.48;70.83;100395.38;692040;28;21487;-62
2022/10/15 00:46:41;;;;;;;848.78;788.40;;;;;;;15.45;70.98;100393.94;692029;28;114578;-62
2022/10/15 00:47:09;;;;;;;837.75;777.47;;;;;;;15.46;70.96;100387.44;693213;28;69358;-62
2022/10/15 00:47:35;;;;;;;845.40;785.03;;;;;;;15.46;71.11;100398.31;693130;28;137989;-60
2022/10/15 00:47:56;;;;;;;847.53;787.20;;;;;;;15.43;71.11;100393.31;694139;28;136417;-62
2022/10/15 00:48:18;;;;;;;845.60;785.33;;;;;;;15.45;71.28;100396.66;697969;28;23469;-62
2022/10/15 00:48:39;;;;;;;844.80;784.50;;;;;;;15.45;71.52;100393.94;697131;28;45259;-63
2022/10/15 00:49:03;;;;;;;845.45;785.20;;;;;;;15.44;71.46;100392.28;698145;28;22253;-63
2022/10/15 00:49:27;;;;;;;845.95;785.50;;;;;;;15.44;71.24;100386.84;694874;28;113232;-62
2022/10/15 00:49:52;;;;;;;858.17;797.50;;;;;;;15.45;71.61;100390.38;694809;28;69432;-63
2022/10/15 00:50:17;;;;;;;842.88;782.65;;;;;;;15.43;71.57;100396.03;691477;28;136541;-62
2022/10/15 00:50:39;;;;;;;851.30;790.90;;;;;;;15.43;71.66;100390.59;692226;28;115186;-62
2022/10/15 00:51:03;;;;;;;856.20;795.75;;;;;;;15.43;71.58;100395.22;694804;28;46446;-63
2022/10/15 00:51:28;;;;;;;848.00;787.72;;;;;;;15.41;71.60;100398.16;693789;28;113585;-62
2022/10/15 00:51:54;;;;;;;844.33;784.17;;;;;;;15.43;71.97;100393.31;695543;28;92281;-63
2022/10/15 00:52:18;;;;;;;849.38;789.08;;;;;;;15.42;71.70;100397.09;694370;28;137983;-63
2022/10/15 00:52:43;;;;;;;856.42;795.88;;;;;;;15.43;71.79;100395.22;695986;28;92211;-63
2022/10/15 00:53:07;;;;;;;844.20;784.00;;;;;;;15.43;71.82;100387.88;694308;28;138293;-63
2022/10/15 00:53:29;;;;;;;839.97;779.80;;;;;;;15.43;71.70;100392.50;695299;28;92386;-63
2022/10/15 00:53:51;;;;;;;844.75;784.35;;;;;;;15.43;71.88;100395.22;697064;28;45341;-63
2022/10/15 00:54:13;;;;;;;842.47;782.38;;;;;;;15.43;72.12;100389.78;698219;28;22405;-63
2022/10/15 00:54:38;;;;;;;836.90;776.92;;;;;;;15.43;71.79;100395.22;695771;28;70314;-62
2022/10/15 00:55:06;;;;;;;850.63;790.22;;;;;;;15.43;71.80;100398.75;692216;28;115152;-63
2022/10/15 00:55:29;;;;;;;869.08;808.08;;;;;;;15.43;71.96;100396.03;691255;28;138106;-63
2022/10/15 00:55:50;;;;;;;872.83;811.72;;;;;;;15.42;71.82;100394.38;692620;28;92307;-63
2022/10/15 00:56:12;;;;;;;858.92;798.33;;;;;;;15.42;72.01;100397.09;696416;28;21234;-63
2022/10/15 00:56:36;;;;;;;859.05;798.40;;;;;;;15.43;71.88;100395.22;697374;28;43568;-62
2022/10/15 00:57:00;;;;;;;860.05;799.33;;;;;;;15.44;72.21;100394.16;696362;28;60934;-63
2022/10/15 00:57:21;;;;;;;860.45;799.60;;;;;;;15.43;71.88;100393.31;694540;28;46742;-63
2022/10/15 00:57:44;;;;;;;848.55;788.05;;;;;;;15.43;71.84;100393.31;696199;28;21207;-62
2022/10/15 00:58:08;;;;;;;857.47;796.85;;;;;;;15.43;72.17;100393.31;697303;28;44395;-63
2022/10/15 00:58:31;;;;;;;859.42;798.78;;;;;;;15.41;71.74;100387.25;695152;28;92337;-63
2022/10/15 00:58:53;;;;;;;867.17;806.28;;;;;;;15.43;72.04;100390.59;696360;28;70201;-63
2022/10/15 00:59:15;;;;;;;858.75;798.03;;;;;;;15.43;71.87;100393.31;696691;28;70306;-61
2022/10/15 00:59:40;;;;;;;855.72;795.08;;;;;;;15.43;72.18;100398.75;695154;28;45222;-62
2022/10/15 01:00:08;;;;;;;858.92;798.22;;;;;;;15.43;72.25;100390.59;691323;28;137979;-63
2022/10/15 01:00:30;;;;;;;864.60;803.75;;;;;;;15.43;72.25;100390.59;688837;28;138402;-62
2022/10/15 01:00:53;;;;;;;856.50;795.75;;;;;;;15.43;71.96;100384.31;687240;28;92277;-62
2022/10/15 01:01:15;;;;;;;861.22;800.45;;;;;;;15.43;72.32;100389.78;691949;28;21677;-62
2022/10/15 01:01:37;;;;;;;864.35;803.47;;;;;;;15.43;72.31;100389.78;692433;28;22378;-63
2022/10/15 01:01:59;;;;;;;860.95;800.28;;;;;;;15.43;71.91;100387.03;690951;28;69818;-62
2022/10/15 01:02:20;;;;;;;843.70;783.58;;;;;;;15.43;72.23;100389.78;691957;28;41898;-66
2022/10/15 01:02:47;;;;;;;854.55;794.10;;;;;;;15.40;72.20;100382.03;694887;28;61745;-64
2022/10/15 01:03:11;;;;;;;848.78;788.55;;;;;;;15.40;72.36;100387.47;698206;28;23619;-63
2022/10/15 01:03:34;;;;;;;840.27;780.30;;;;;;;15.40;72.45;100384.75;691749;28;115198;-63
2022/10/15 01:03:55;;;;;;;855.92;795.30;;;;;;;15.40;72.44;100385.59;690929;28;68395;-62
2022/10/15 01:04:17;;;;;;;860.80;800.03;;;;;;;15.40;72.48;100379.31;688713;28;46321;-63
2022/10/15 01:04:41;;;;;;;852.03;791.55;;;;;;;15.39;72.66;100380.34;690247;28;21342;-62
2022/10/15 01:05:03;;;;;;;848.90;788.58;;;;;;;15.40;72.47;100380.13;687795;28;91210;-65
2022/10/15 01:05:24;;;;;;;843.05;782.85;;;;;;;15.41;72.71;100384.53;690268;28;46292;-63
2022/10/15 01:05:46;;;;;;;847.00;786.72;;;;;;;15.40;72.52;100374.69;690713;28;21539;-63
2022/10/15 01:06:10;;;;;;;851.00;790.65;;;;;;;15.41;72.40;100381.81;693095;28;4472;-63
2022/10/15 01:06:31;;;;;;;862.47;801.72;;;;;;;15.41;72.65;100379.09;690115;28;93044;-62
2022/10/15 01:06:52;;;;;;;860.65;799.97;;;;;;;15.42;72.44;100378.06;692273;28;22371;-62
2022/10/15 01:07:14;;;;;;;863.40;802.25;;;;;;;15.41;72.44;100364.66;692356;28;21543;-62
2022/10/15 01:07:36;;;;;;;864.92;803.97;;;;;;;15.42;72.23;100375.34;694100;28;44222;-62
2022/10/15 01:07:57;;;;;;;862.83;802.08;;;;;;;15.43;72.63;100376.16;694284;28;46396;-62
2022/10/15 01:08:18;;;;;;;858.60;797.92;;;;;;;15.44;72.42;100372.41;695727;28;21528;-62
2022/10/15 01:08:40;;;;;;;859.60;798.78;;;;;;;15.43;72.52;100366.09;696652;28;44236;-63
2022/10/15 01:09:05;;;;;;;856.10;795.40;;;;;;;15.44;72.50;100369.69;694963;28;93207;-62
2022/10/15 01:09:27;;;;;;;852.53;791.92;;;;;;;15.44;72.47;100367.78;695879;28;1081;-62
2022/10/15 01:09:48;;;;;;;846.55;786.17;;;;;;;15.45;72.48;100379.50;695441;28;21555;-62
2022/10/15 01:10:13;;;;;;;850.00;789.50;;;;;;;15.44;72.52;100367.78;692240;28;113695;-62
2022/10/15 01:10:40;;;;;;;855.03;794.53;;;;;;;15.44;72.59;100370.50;695555;28;22162;-62
2022/10/15 01:11:09;;;;;;;846.75;786.50;;;;;;;15.45;72.00;100371.31;694074;28;137964;-63
2022/10/15 01:11:37;;;;;;;843.30;783.15;;;;;;;15.43;72.30;100366.09;693525;28;160963;-63
2022/10/15 01:12:00;;;;;;;832.92;773.03;;;;;;;15.43;72.55;100370.72;694207;28;137879;-62
2022/10/15 01:12:28;;;;;;;847.50;787.05;;;;;;;15.40;72.62;100366.53;697269;28;45272;-62
2022/10/15 01:12:58;;;;;;;841.35;781.25;;;;;;;15.40;72.64;100366.53;693039;28;161371;-62
2022/10/15 01:13:27;;;;;;;844.10;783.80;;;;;;;15.40;72.83;100366.53;694217;28;138224;-62
2022/10/15 01:13:53;;;;;;;853.78;793.40;;;;;;;15.41;72.68;100361.94;693172;28;157696;-64
2022/10/15 01:14:25;;;;;;;841.88;781.78;;;;;;;15.41;72.76;100367.38;694275;28;136376;-62
2022/10/15 01:14:51;;;;;;;854.72;794.33;;;;;;;15.41;72.77;100362.78;694140;28;138596;-63
2022/10/15 01:15:18;;;;;;;839.17;779.08;;;;;;;15.42;72.94;100360.88;694279;28;60168;-62
2022/10/15 01:15:46;;;;;;;842.47;782.10;;;;;;;15.41;73.02;100362.78;692254;28;116040;-62
2022/10/15 01:16:12;;;;;;;845.85;785.50;;;;;;;15.41;73.11;100359.22;690216;28;160983;-62
2022/10/15 01:16:41;;;;;;;854.65;794.03;;;;;;;15.40;73.37;100358.38;691321;28;138156;-62
2022/10/15 01:17:04;;;;;;;846.08;785.63;;;;;;;15.40;73.22;100349.38;687920;28;136088;-62
2022/10/15 01:17:30;;;;;;;834.72;774.70;;;;;;;15.39;73.27;100364.88;688338;28;69240;-62
2022/10/15 01:17:55;;;;;;;846.20;785.90;;;;;;;15.39;73.34;100362.16;688745;28;138055;-63
2022/10/15 01:18:21;;;;;;;841.75;781.50;;;;;;;15.38;73.37;100357.75;688026;28;138070;-62
2022/10/15 01:18:49;;;;;;;861.10;800.20;;;;;;;15.39;73.24;100353.16;686817;28;90498;-62
2022/10/15 01:19:25;;;;;;;853.05;792.38;;;;;;;15.40;73.17;100352.09;685891;28;136364;-63
2022/10/15 01:20:19;;;;;;;845.50;785.10;;;;;;;15.42;72.82;100360.88;688361;28;135985;-63
2022/10/15 01:20:52;;;;;;;865.17;804.30;;;;;;;15.42;72.85;100352.72;693425;28;136106;-62
2022/10/15 01:21:20;;;;;;;862.03;801.15;;;;;;;15.41;73.28;100357.34;691226;28;135998;-62
2022/10/15 01:21:48;;;;;;;858.45;797.58;;;;;;;15.41;73.18;100348.34;690299;28;137754;-63
2022/10/15 01:22:17;;;;;;;864.58;803.65;;;;;;;15.40;73.53;100350.22;691043;28;137684;-62
2022/10/15 01:22:55;;;;;;;855.97;795.30;;;;;;;15.40;73.06;100349.38;688627;28;137742;-63
2022/10/15 01:23:44;;;;;;;860.00;799.25;;;;;;;15.38;73.25;100363.22;691209;28;137525;-62
2022/10/15 01:24:46;;;;;;;858.63;797.75;;;;;;;15.38;73.38;100349.59;686096;28;157293;-62
2022/10/15 01:25:16;;;;;;;864.95;803.50;;;;;;;15.38;73.20;100346.88;692652;28;60840;-62
2022/10/15 01:25:43;;;;;;;860.28;799.53;;;;;;;15.36;73.45;100351.72;691362;28;135189;-62
2022/10/15 01:26:18;;;;;;;853.33;792.95;;;;;;;15.32;73.67;100354.03;691485;28;138010;-62
2022/10/15 01:27:05;;;;;;;864.78;804.00;;;;;;;15.35;73.61;100351.94;691198;28;137518;-62
2022/10/15 01:27:34;;;;;;;854.55;793.92;;;;;;;15.38;73.55;100356.94;693844;28;61332;-62
2022/10/15 01:27:57;;;;;;;851.45;791.05;;;;;;;15.38;73.73;100346.06;691310;28;136308;-62
2022/10/15 01:28:24;;;;;;;860.92;800.15;;;;;;;15.34;73.34;100337.47;690763;28;69409;-62
2022/10/15 01:28:49;;;;;;;863.33;802.33;;;;;;;15.36;73.61;100343.56;693149;28;137642;-63
2022/10/15 01:29:19;;;;;;;863.50;802.67;;;;;;;15.38;73.51;100346.88;694179;28;137919;-63
2022/10/15 01:30:23;;;;;;;849.72;789.40;;;;;;;15.37;73.92;100344.38;691582;28;137679;-63
2022/10/15 01:30:49;;;;;;;870.53;809.50;;;;;;;15.34;73.46;100336.66;688310;28;138269;-62
2022/10/15 01:31:18;;;;;;;878.42;817.15;;;;;;;15.37;73.58;100352.53;689415;28;116113;-62
2022/10/15 01:31:45;;;;;;;863.00;802.20;;;;;;;15.35;73.81;100344.59;688156;28;136177;-63
2022/10/15 01:32:08;;;;;;;844.53;784.22;;;;;;;15.34;73.58;100340.19;690670;28;138642;-63
2022/10/15 01:32:33;;;;;;;838.55;778.35;;;;;;;15.35;73.80;100341.88;689950;28;92094;-63
2022/10/15 01:33:11;;;;;;;859.67;798.83;;;;;;;15.35;73.95;100339.16;691815;28;116065;-63
2022/10/15 01:33:36;;;;;;;853.45;792.85;;;;;;;15.37;73.84;100344.38;689827;28;160578;-61
2022/10/15 01:34:01;;;;;;;869.10;808.10;;;;;;;15.38;73.69;100340.63;689575;28;115065;-63
2022/10/15 01:34:27;;;;;;;851.95;791.58;;;;;;;15.38;73.84;100336.00;689513;28;115979;-63
2022/10/15 01:34:53;;;;;;;851.70;791.28;;;;;;;15.40;73.68;100338.50;688817;28;136386;-63
2022/10/15 01:35:21;;;;;;;842.53;782.22;;;;;;;15.39;73.77;100345.84;685515;28;138239;-62
2022/10/15 01:35:49;;;;;;;852.42;791.88;;;;;;;15.40;73.64;100338.50;685644;28;133945;-63
2022/10/15 01:36:15;;;;;;;843.22;782.83;;;;;;;15.41;73.53;100335.56;683526;28;137827;-62
2022/10/15 01:36:42;;;;;;;842.38;782.15;;;;;;;15.42;73.72;100336.38;681385;28;138155;-63
2022/10/15 01:37:08;;;;;;;834.72;774.55;;;;;;;15.42;73.79;100337.25;682493;28;159618;-62
2022/10/15 01:37:37;;;;;;;837.88;777.85;;;;;;;15.42;73.55;100331.78;683611;28;135263;-62
2022/10/15 01:38:05;;;;;;;838.47;778.47;;;;;;;15.42;73.52;100337.25;683861;28;137873;-61
2022/10/15 01:38:34;;;;;;;854.83;794.17;;;;;;;15.40;73.62;100331.16;684301;28;137976;-61
2022/10/15 01:38:58;;;;;;;839.00;778.90;;;;;;;15.44;73.38;100334.31;685559;28;138189;-61
2022/10/15 01:39:23;;;;;;;841.70;781.45;;;;;;;15.42;73.63;100330.94;688886;28;70827;-59
2022/10/15 01:39:50;;;;;;;855.92;795.42;;;;;;;15.43;73.49;100338.88;689734;28;115170;-62
2022/10/15 01:40:14;;;;;;;870.78;809.78;;;;;;;15.43;73.56;100338.88;688684;28;136333;-61
2022/10/15 01:40:40;;;;;;;855.95;795.28;;;;;;;15.42;73.54;100334.50;688531;28;90689;-61
2022/10/15 01:41:08;;;;;;;852.33;791.80;;;;;;;15.43;73.45;100335.34;688507;28;138456;-62
2022/10/15 01:41:35;;;;;;;852.55;791.90;;;;;;;15.42;73.53;100328.22;685766;28;137692;-63
2022/10/15 01:42:01;;;;;;;848.65;788.25;;;;;;;15.42;73.72;100339.97;688409;28;138295;-63
2022/10/15 01:42:29;;;;;;;867.33;806.42;;;;;;;15.42;73.77;100336.38;691085;28;61582;-62
2022/10/15 01:42:55;;;;;;;869.83;808.85;;;;;;;15.42;73.65;100339.97;690041;28;115123;-62
2022/10/15 01:43:22;;;;;;;866.85;805.80;;;;;;;15.43;73.74;100338.06;688944;28;116031;-62
2022/10/15 01:44:06;;;;;;;846.63;786.35;;;;;;;15.42;73.70;100341.81;693121;28;155920;-61
2022/10/15 01:45:00;;;;;;;857.67;797.08;;;;;;;15.42;73.72;100334.50;688593;28;124795;-62
2022/10/15 01:45:47;;;;;;;855.47;794.97;;;;;;;15.44;73.38;100340.56;693767;28;137738;-63
2022/10/15 01:46:23;;;;;;;854.58;794.08;;;;;;;15.45;73.34;100336.81;691299;28;137432;-63
2022/10/15 01:47:04;;;;;;;865.63;804.58;;;;;;;15.45;73.38;100335.94;687902;28;137713;-62
2022/10/15 01:47:29;;;;;;;859.15;798.33;;;;;;;15.45;73.61;100335.94;688725;28;52898;-62
2022/10/15 01:47:52;;;;;;;860.30;799.58;;;;;;;15.46;73.74;100332.19;686901;28;115273;-63
2022/10/15 01:48:16;;;;;;;852.42;792.03;;;;;;;15.45;73.37;100333.22;689070;28;46602;-62
2022/10/15 01:48:38;;;;;;;844.42;784.30;;;;;;;15.46;73.60;100332.19;687054;28;90723;-63
2022/10/15 01:49:02;;;;;;;850.45;790.22;;;;;;;15.44;73.57;100332.41;687821;28;67511;-62
2022/10/15 01:49:27;;;;;;;856.10;795.70;;;;;;;15.43;73.61;100327.19;688994;28;90693;-62
2022/10/15 01:49:48;;;;;;;861.72;801.10;;;;;;;15.46;73.46;100332.19;692038;28;91810;-62
2022/10/15 01:50:11;;;;;;;870.08;809.15;;;;;;;15.46;73.77;100337.63;691689;28;44099;-61
2022/10/15 01:50:34;;;;;;;870.10;809.05;;;;;;;15.46;73.40;100337.63;689954;28;69448;-62
2022/10/15 01:50:59;;;;;;;867.88;806.97;;;;;;;15.45;73.47;100336.81;688968;28;44388;-62